createdAt,value
2018-12-04T00:00:09.556Z,2.83
2018-12-04T00:02:38.055Z,3.23
2018-12-04T00:07:40.494Z,3.30
2018-12-04T00:10:08.906Z,2.63
2018-12-04T00:12:36.743Z,2.40
2018-12-04T00:15:05.020Z,2.67
2018-12-04T00:17:32.961Z,3.13
2018-12-04T00:20:00.791Z,2.70
2018-12-04T00:22:28.693Z,3.40
2018-12-04T00:24:56.608Z,2.37
2018-12-04T00:27:24.472Z,3.30
2018-12-04T00:29:52.497Z,2.80
2018-12-04T00:32:20.564Z,2.93
2018-12-04T00:34:48.388Z,2.70
2018-12-04T00:37:16.300Z,3.30
2018-12-04T00:39:44.166Z,3.00
2018-12-04T00:42:12.054Z,3.10
2018-12-04T00:44:40.191Z,2.63
2018-12-04T00:47:08.024Z,2.60
2018-12-04T00:49:36.029Z,3.40
2018-12-04T00:52:03.928Z,2.97
2018-12-04T00:54:31.787Z,3.07
2018-12-04T00:56:59.641Z,2.70
2018-12-04T00:59:27.500Z,2.60
2018-12-04T01:01:55.354Z,2.80
2018-12-04T01:04:23.245Z,2.50
2018-12-04T01:06:51.093Z,2.83
2018-12-04T01:09:18.957Z,3.23
2018-12-04T01:11:46.801Z,2.67
2018-12-04T01:14:14.655Z,2.47
2018-12-04T01:16:42.505Z,3.07
2018-12-04T01:19:10.343Z,2.53
2018-12-04T01:21:38.194Z,2.93
2018-12-04T01:24:06.047Z,3.03
2018-12-04T01:26:33.923Z,2.83
2018-12-04T01:29:01.761Z,2.90
2018-12-04T01:31:29.602Z,2.80
2018-12-04T01:33:57.438Z,2.73
2018-12-04T01:36:25.450Z,2.43
2018-12-04T01:38:53.285Z,2.70
2018-12-04T01:41:21.113Z,2.83
2018-12-04T01:43:48.949Z,3.40
2018-12-04T01:46:16.845Z,2.60
2018-12-04T01:48:44.684Z,3.17
2018-12-04T01:51:12.537Z,3.43
2018-12-04T01:53:40.378Z,3.37
2018-12-04T01:56:08.202Z,3.27
2018-12-04T01:58:36.063Z,3.50
2018-12-04T02:01:03.900Z,3.57
2018-12-04T02:03:31.805Z,3.30
2018-12-04T02:05:59.653Z,3.07
2018-12-04T02:08:27.682Z,2.53
2018-12-04T02:10:55.519Z,2.43
2018-12-04T02:13:23.515Z,2.50
2018-12-04T02:15:51.392Z,2.80
2018-12-04T02:18:19.271Z,2.83
2018-12-04T02:20:47.093Z,2.47
2018-12-04T02:23:14.921Z,2.73
2018-12-04T02:25:42.977Z,2.43
2018-12-04T02:28:10.854Z,2.67
2018-12-04T02:30:38.668Z,2.90
2018-12-04T02:33:06.537Z,2.60
2018-12-04T02:35:34.348Z,4.17
2018-12-04T02:38:02.188Z,3.00
2018-12-04T02:40:30.131Z,2.93
2018-12-04T02:42:58.002Z,2.70
2018-12-04T02:45:25.839Z,2.70
2018-12-04T02:47:53.671Z,2.90
2018-12-04T02:50:21.515Z,3.43
2018-12-04T02:52:49.354Z,3.77
2018-12-04T02:55:17.205Z,2.80
2018-12-04T02:57:45.036Z,3.70
2018-12-04T03:00:12.985Z,3.43
2018-12-04T03:02:40.833Z,3.60
2018-12-04T03:05:08.826Z,3.23
2018-12-04T03:07:36.685Z,3.23
2018-12-04T03:10:05.346Z,3.30
2018-12-04T03:12:33.221Z,3.90
2018-12-04T03:15:01.128Z,3.97
2018-12-04T03:17:29.049Z,3.57
2018-12-04T03:19:56.917Z,3.30
2018-12-04T03:22:24.741Z,3.07
2018-12-04T03:24:52.582Z,3.10
2018-12-04T03:27:20.432Z,3.67
2018-12-04T03:29:48.280Z,3.63
2018-12-04T03:32:16.509Z,3.63
2018-12-04T03:34:44.354Z,4.13
2018-12-04T03:37:12.240Z,4.33
2018-12-04T03:39:40.095Z,4.60
2018-12-04T03:42:07.939Z,4.97
2018-12-04T03:44:35.915Z,4.77
2018-12-04T03:47:03.984Z,4.53
2018-12-04T03:49:31.886Z,4.27
2018-12-04T03:51:59.740Z,4.60
2018-12-04T03:54:27.568Z,4.67
2018-12-04T03:56:55.409Z,5.63
2018-12-04T03:59:23.247Z,5.13
2018-12-04T04:01:51.086Z,5.40
2018-12-04T04:04:18.990Z,5.03
2018-12-04T04:06:46.882Z,4.17
2018-12-04T04:09:14.731Z,4.93
2018-12-04T04:11:42.573Z,4.97
2018-12-04T04:14:10.400Z,4.70
2018-12-04T04:16:38.301Z,4.07
2018-12-04T04:19:06.114Z,3.83
2018-12-04T04:21:34.037Z,4.30
2018-12-04T04:24:01.926Z,4.67
2018-12-04T04:26:29.768Z,4.77
2018-12-04T04:28:57.717Z,4.30
2018-12-04T04:31:25.642Z,5.53
2018-12-04T04:33:53.481Z,4.40
2018-12-04T04:36:21.326Z,4.10
2018-12-04T04:38:49.174Z,4.37
2018-12-04T04:41:17.017Z,4.50
2018-12-04T04:43:44.874Z,4.03
2018-12-04T04:46:12.750Z,4.10
2018-12-04T04:48:40.735Z,4.37
2018-12-04T04:51:08.616Z,3.53
2018-12-04T04:53:36.436Z,3.60
2018-12-04T04:56:04.366Z,3.00
2018-12-04T04:58:32.184Z,3.90
2018-12-04T05:01:00.135Z,3.50
2018-12-04T05:03:27.975Z,4.07
2018-12-04T05:05:55.834Z,4.17
2018-12-04T05:08:23.675Z,3.50
2018-12-04T05:10:51.522Z,3.23
2018-12-04T05:13:19.360Z,3.00
2018-12-04T05:15:47.202Z,3.97
2018-12-04T05:18:15.080Z,3.13
2018-12-04T05:20:43.116Z,4.43
2018-12-04T05:23:10.949Z,3.80
2018-12-04T05:25:38.826Z,8.93
2018-12-04T05:28:06.718Z,3.73
2018-12-04T05:30:34.585Z,3.40
2018-12-04T05:33:02.514Z,3.53
2018-12-04T05:35:30.361Z,4.10
2018-12-04T05:37:58.195Z,3.53
2018-12-04T05:40:26.036Z,4.30
2018-12-04T05:42:53.882Z,3.50
2018-12-04T05:45:21.722Z,3.67
2018-12-04T05:47:49.589Z,3.50
2018-12-04T05:50:17.430Z,4.23
2018-12-04T05:52:48.647Z,3.70
2018-12-04T05:55:16.484Z,3.20
2018-12-04T05:57:44.317Z,3.60
2018-12-04T06:00:12.278Z,3.50
2018-12-04T06:02:40.270Z,3.30
2018-12-04T06:05:08.159Z,4.07
2018-12-04T06:07:36.001Z,3.63
2018-12-04T06:10:03.882Z,3.73
2018-12-04T06:12:31.717Z,3.17
2018-12-04T06:14:59.534Z,4.17
2018-12-04T06:17:27.357Z,4.97
2018-12-04T06:19:55.233Z,3.97
2018-12-04T06:22:23.065Z,5.10
2018-12-04T06:24:50.988Z,4.10
2018-12-04T06:27:18.922Z,4.13
2018-12-04T06:29:46.799Z,4.70
2018-12-04T06:32:14.717Z,4.43
2018-12-04T06:34:42.572Z,5.40
2018-12-04T06:37:10.457Z,5.90
2018-12-04T06:39:38.309Z,7.37
2018-12-04T06:42:06.150Z,8.73
2018-12-04T06:44:33.970Z,7.93
2018-12-04T06:47:01.810Z,6.70
2018-12-04T06:49:29.629Z,5.53
2018-12-04T06:51:57.469Z,7.03
2018-12-04T06:54:25.297Z,5.80
2018-12-04T06:56:53.181Z,5.00
2018-12-04T06:59:21.238Z,4.90
2018-12-04T07:01:49.082Z,5.43
2018-12-04T07:04:16.951Z,5.07
2018-12-04T07:06:45.448Z,5.03
2018-12-04T07:09:13.382Z,5.67
2018-12-04T07:11:41.216Z,5.33
2018-12-04T07:14:09.198Z,5.97
2018-12-04T07:16:37.038Z,5.27
2018-12-04T07:19:04.885Z,5.77
2018-12-04T07:21:32.738Z,5.50
2018-12-04T07:24:00.573Z,5.33
2018-12-04T07:26:28.407Z,5.70
2018-12-04T07:28:56.326Z,5.27
2018-12-04T07:31:24.175Z,5.33
2018-12-04T07:33:52.145Z,5.33
2018-12-04T07:36:19.993Z,5.27
2018-12-04T07:38:47.884Z,5.30
2018-12-04T07:41:15.746Z,5.83
2018-12-04T07:43:43.693Z,6.47
2018-12-04T07:46:11.704Z,4.53
2018-12-04T07:48:46.159Z,5.47
2018-12-04T07:51:14.014Z,5.13
2018-12-04T07:53:41.853Z,5.33
2018-12-04T07:56:09.756Z,5.40
2018-12-04T07:58:37.620Z,6.10
2018-12-04T08:01:05.501Z,6.30
2018-12-04T08:03:33.353Z,6.13
2018-12-04T08:06:05.367Z,6.50
2018-12-04T08:08:33.192Z,6.67
2018-12-04T08:11:01.057Z,7.00
2018-12-04T08:13:28.966Z,6.13
2018-12-04T08:15:56.817Z,6.03
2018-12-04T08:18:24.695Z,6.30
2018-12-04T08:20:52.536Z,6.43
2018-12-04T08:23:20.416Z,6.27
2018-12-04T08:25:48.277Z,6.43
2018-12-04T08:28:16.145Z,6.13
2018-12-04T08:30:43.994Z,5.80
2018-12-04T08:33:12.149Z,6.33
2018-12-04T08:35:40.056Z,6.10
2018-12-04T08:38:07.989Z,7.30
2018-12-04T08:40:35.825Z,6.87
2018-12-04T08:43:03.681Z,6.83
2018-12-04T08:45:31.511Z,8.60
2018-12-04T08:47:59.445Z,7.77
2018-12-04T08:50:27.291Z,7.50
2018-12-04T08:52:55.134Z,7.20
2018-12-04T08:55:22.961Z,7.70
2018-12-04T08:57:50.824Z,8.00
2018-12-04T09:00:18.671Z,6.87
2018-12-04T09:02:46.557Z,6.73
2018-12-04T09:05:14.536Z,6.90
2018-12-04T09:07:42.528Z,7.07
2018-12-04T09:10:10.386Z,7.27
2018-12-04T09:12:38.214Z,7.67
2018-12-04T09:15:06.777Z,7.60
2018-12-04T09:17:34.613Z,7.27
2018-12-04T09:20:02.536Z,8.53
2018-12-04T09:22:30.481Z,8.33
2018-12-04T09:24:58.365Z,9.07
2018-12-04T09:27:26.232Z,8.33
2018-12-04T09:29:54.202Z,8.50
2018-12-04T09:32:22.176Z,8.47
2018-12-04T09:34:50.039Z,9.17
2018-12-04T09:37:18.056Z,8.73
2018-12-04T09:39:45.911Z,9.70
2018-12-04T09:42:13.811Z,8.87
2018-12-04T09:44:41.706Z,8.60
2018-12-04T09:47:09.560Z,9.53
2018-12-04T09:49:37.432Z,8.97
2018-12-04T09:52:05.293Z,8.60
2018-12-04T09:54:33.163Z,9.07
2018-12-04T09:57:01.134Z,8.43
2018-12-04T09:59:29.004Z,8.83
2018-12-04T10:01:56.876Z,8.77
2018-12-04T10:04:24.913Z,8.90
2018-12-04T10:06:52.781Z,8.90
2018-12-04T10:09:20.714Z,10.53
2018-12-04T10:11:48.573Z,10.20
2018-12-04T10:14:16.393Z,9.77
2018-12-04T10:16:44.238Z,9.07
2018-12-04T10:19:12.177Z,9.50
2018-12-04T10:21:40.073Z,9.50
2018-12-04T10:24:07.933Z,8.53
2018-12-04T10:26:35.784Z,8.57
2018-12-04T10:29:03.658Z,7.63
2018-12-04T10:31:31.477Z,7.27
2018-12-04T10:33:59.320Z,7.47
2018-12-04T10:36:27.171Z,7.47
2018-12-04T10:38:55.166Z,7.93
2018-12-04T10:41:23.060Z,8.27
2018-12-04T10:43:51.020Z,6.77
2018-12-04T10:46:18.841Z,7.63
2018-12-04T10:48:46.656Z,6.17
2018-12-04T10:51:14.501Z,6.70
2018-12-04T10:53:42.469Z,5.83
2018-12-04T10:56:10.334Z,6.10
2018-12-04T10:58:38.161Z,4.97
2018-12-04T11:01:11.416Z,4.87
2018-12-04T11:03:39.469Z,5.57
2018-12-04T11:06:07.598Z,4.50
2018-12-04T11:08:35.464Z,5.03
2018-12-04T11:11:03.422Z,6.17
2018-12-04T11:13:31.304Z,4.93
2018-12-04T11:15:59.465Z,6.53
2018-12-04T11:18:27.322Z,7.07
2018-12-04T11:20:55.180Z,5.60
2018-12-04T11:23:23.044Z,4.37
2018-12-04T11:25:50.923Z,3.90
2018-12-04T11:28:18.792Z,3.00
2018-12-04T11:30:46.652Z,2.97
2018-12-04T11:33:14.490Z,2.90
2018-12-04T11:35:42.898Z,3.20
2018-12-04T11:38:11.565Z,2.50
2018-12-04T11:40:39.629Z,2.63
2018-12-04T11:43:07.459Z,2.60
2018-12-04T11:45:35.327Z,2.70
2018-12-04T11:48:03.330Z,2.53
2018-12-04T11:50:31.181Z,2.90
2018-12-04T11:52:59.041Z,2.30
2018-12-04T11:55:33.311Z,2.40
2018-12-04T11:58:01.359Z,2.30
2018-12-04T12:00:35.853Z,2.43
2018-12-04T12:03:03.763Z,2.00
2018-12-04T12:05:31.681Z,2.27
2018-12-04T12:07:59.577Z,2.13
2018-12-04T12:10:27.705Z,2.50
2018-12-04T12:12:55.629Z,3.33
2018-12-04T12:15:23.481Z,3.07
2018-12-04T12:17:51.380Z,3.07
2018-12-04T12:20:19.246Z,1.90
2018-12-04T12:22:47.086Z,2.50
2018-12-04T12:25:14.972Z,2.03
2018-12-04T12:27:43.497Z,2.10
2018-12-04T12:30:11.450Z,3.80
2018-12-04T12:32:39.316Z,3.23
2018-12-04T12:35:07.737Z,3.20
2018-12-04T12:37:35.649Z,2.50
2018-12-04T12:40:03.641Z,2.90
2018-12-04T12:42:31.530Z,3.47
2018-12-04T12:44:59.533Z,3.80
2018-12-04T12:47:27.391Z,2.60
2018-12-04T12:49:55.331Z,1.77
2018-12-04T12:52:23.201Z,1.70
2018-12-04T12:54:51.102Z,1.60
2018-12-04T12:57:19.197Z,2.10
2018-12-04T12:59:47.092Z,2.10
2018-12-04T13:02:15.042Z,1.50
2018-12-04T13:04:42.976Z,2.20
2018-12-04T13:07:10.865Z,2.60
2018-12-04T13:09:38.701Z,2.37
2018-12-04T13:12:06.545Z,2.23
2018-12-04T13:14:34.391Z,2.17
2018-12-04T13:17:02.333Z,2.20
2018-12-04T13:19:30.273Z,2.17
2018-12-04T13:21:58.205Z,2.07
2018-12-04T13:24:26.067Z,2.07
2018-12-04T13:26:54.154Z,2.30
2018-12-04T13:29:21.986Z,1.90
2018-12-04T13:31:49.858Z,2.00
2018-12-04T13:34:17.764Z,2.80
2018-12-04T13:36:45.620Z,2.30
2018-12-04T13:39:13.531Z,2.10
2018-12-04T13:41:41.430Z,1.80
2018-12-04T13:44:09.290Z,5.07
2018-12-04T13:46:37.353Z,3.80
2018-12-04T13:49:05.213Z,2.90
2018-12-04T13:51:33.104Z,2.27
2018-12-04T13:54:01.020Z,1.87
2018-12-04T13:56:28.978Z,2.37
2018-12-04T13:58:57.774Z,2.57
2018-12-04T14:01:25.620Z,3.07
2018-12-04T14:03:53.469Z,2.87
2018-12-04T14:06:21.349Z,3.27
2018-12-04T14:08:49.266Z,2.20
2018-12-04T14:11:17.179Z,2.20
2018-12-04T14:13:45.030Z,2.17
2018-12-04T14:16:12.893Z,2.20
2018-12-04T14:18:40.792Z,2.60
2018-12-04T14:21:08.649Z,1.67
2018-12-04T14:23:36.565Z,2.20
2018-12-04T14:26:04.487Z,1.60
2018-12-04T14:28:32.445Z,1.90
2018-12-04T14:31:00.306Z,2.27
2018-12-04T14:33:28.343Z,1.73
2018-12-04T14:35:56.225Z,1.70
2018-12-04T14:38:24.690Z,1.90
2018-12-04T14:40:52.866Z,2.47
2018-12-04T14:43:20.699Z,1.97
2018-12-04T14:45:48.599Z,2.27
2018-12-04T14:48:16.501Z,2.63
2018-12-04T14:50:44.460Z,2.40
2018-12-04T14:53:12.409Z,2.83
2018-12-04T14:55:40.264Z,2.47
2018-12-04T14:58:08.197Z,1.80
2018-12-04T15:00:36.056Z,2.23
2018-12-04T15:03:03.951Z,2.97
2018-12-04T15:05:31.833Z,3.07
2018-12-04T15:07:59.735Z,2.57
2018-12-04T15:10:27.614Z,2.87
2018-12-04T15:12:55.671Z,2.30
2018-12-04T15:15:24.810Z,3.20
2018-12-04T15:17:52.963Z,2.60
2018-12-04T15:20:20.864Z,3.10
2018-12-04T15:22:48.866Z,2.50
2018-12-04T15:25:16.747Z,2.93
2018-12-04T15:27:44.652Z,2.87
2018-12-04T15:30:12.828Z,4.20
2018-12-04T15:32:40.699Z,4.43
2018-12-04T15:35:09.192Z,3.03
2018-12-04T15:37:37.131Z,2.73
2018-12-04T15:40:05.598Z,2.50
2018-12-04T15:42:33.508Z,3.13
2018-12-04T15:45:01.489Z,2.87
2018-12-04T15:47:29.551Z,2.87
2018-12-04T15:49:57.812Z,2.70
2018-12-04T15:52:26.046Z,2.63
2018-12-04T15:54:54.477Z,2.07
2018-12-04T15:57:22.481Z,3.13
2018-12-04T15:59:50.824Z,2.57
2018-12-04T16:02:19.079Z,2.40
2018-12-04T16:04:47.426Z,2.93
2018-12-04T16:07:16.104Z,3.50
2018-12-04T16:09:44.539Z,3.77
2018-12-04T16:12:13.141Z,3.40
2018-12-04T16:14:40.994Z,3.47
2018-12-04T16:17:15.076Z,3.33
2018-12-04T16:19:40.360Z,2.70
2018-12-04T16:22:08.332Z,3.10
2018-12-04T16:24:36.311Z,3.33
2018-12-04T16:27:04.355Z,3.33
2018-12-04T16:29:32.798Z,3.40
2018-12-04T16:32:00.866Z,3.80
2018-12-04T16:34:28.888Z,2.70
2018-12-04T16:36:57.584Z,3.10
2018-12-04T16:39:25.482Z,2.97
2018-12-04T16:41:53.651Z,5.57
2018-12-04T16:44:21.915Z,4.47
2018-12-04T16:46:49.801Z,3.93
2018-12-04T16:49:17.794Z,2.77
2018-12-04T16:51:45.741Z,3.40
2018-12-04T16:54:14.101Z,3.30
2018-12-04T16:56:41.973Z,3.70
2018-12-04T16:59:09.820Z,3.40
2018-12-04T17:01:37.651Z,3.60
2018-12-04T17:04:05.493Z,3.90
2018-12-04T17:06:33.597Z,3.57
2018-12-04T17:09:01.419Z,4.90
2018-12-04T17:11:29.406Z,4.90
2018-12-04T17:13:57.290Z,5.77
2018-12-04T17:16:25.182Z,4.93
2018-12-04T17:18:53.196Z,4.70
2018-12-04T17:21:21.359Z,4.57
2018-12-04T17:23:49.229Z,4.57
2018-12-04T17:26:17.578Z,4.03
2018-12-04T17:28:45.539Z,4.30
2018-12-04T17:31:13.942Z,4.57
2018-12-04T17:33:41.996Z,4.60
2018-12-04T17:36:09.896Z,4.30
2018-12-04T17:38:37.777Z,3.97
2018-12-04T17:41:05.674Z,4.40
2018-12-04T17:43:33.554Z,4.03
2018-12-04T17:46:01.561Z,4.30
2018-12-04T17:48:29.494Z,4.67
2018-12-04T17:50:57.403Z,4.03
2018-12-04T17:53:25.310Z,4.40
2018-12-04T17:55:53.220Z,4.07
2018-12-04T17:58:21.121Z,4.50
2018-12-04T18:00:49.007Z,4.27
2018-12-04T18:03:16.882Z,4.23
2018-12-04T18:05:45.050Z,4.00
2018-12-04T18:08:13.067Z,4.07
2018-12-04T18:10:40.961Z,4.23
2018-12-04T18:13:08.890Z,4.00
2018-12-04T18:15:36.775Z,5.10
2018-12-04T18:18:05.242Z,4.17
2018-12-04T18:20:33.358Z,4.03
2018-12-04T18:23:01.571Z,3.93
2018-12-04T18:25:29.427Z,4.23
2018-12-04T18:27:57.362Z,5.87
2018-12-04T18:30:25.418Z,3.90
2018-12-04T18:32:53.271Z,4.57
2018-12-04T18:35:21.640Z,3.90
2018-12-04T18:37:49.585Z,4.60
2018-12-04T18:40:18.142Z,4.97
2018-12-04T18:42:46.354Z,5.13
2018-12-04T18:45:14.424Z,4.80
2018-12-04T18:47:42.343Z,5.37
2018-12-04T18:50:10.777Z,5.07
2018-12-04T18:52:40.719Z,4.73
2018-12-04T18:55:08.708Z,4.30
2018-12-04T18:57:37.525Z,4.83
2018-12-04T19:00:06.289Z,6.53
2018-12-04T19:02:34.779Z,6.00
2018-12-04T19:05:02.659Z,4.63
2018-12-04T19:07:30.510Z,4.40
2018-12-04T19:09:58.807Z,5.30
2018-12-04T19:12:26.812Z,5.10
2018-12-04T19:14:54.728Z,4.80
2018-12-04T19:17:22.652Z,5.07
2018-12-04T19:19:50.610Z,5.00
2018-12-04T19:22:19.094Z,6.20
2018-12-04T19:24:47.051Z,5.10
2018-12-04T19:27:14.924Z,5.33
2018-12-04T19:29:42.832Z,5.50
2018-12-04T19:32:10.885Z,5.57
2018-12-04T19:34:38.961Z,5.47
2018-12-04T19:37:06.971Z,7.40
2018-12-04T19:39:34.842Z,6.90
2018-12-04T19:42:02.883Z,6.13
2018-12-04T19:44:31.393Z,5.40
2018-12-04T19:46:59.331Z,4.80
2018-12-04T19:49:28.223Z,5.17
2018-12-04T19:51:56.201Z,5.00
2018-12-04T19:54:24.136Z,5.20
2018-12-04T19:56:52.098Z,6.03
2018-12-04T19:59:20.299Z,6.33
2018-12-04T20:01:48.381Z,6.03
2018-12-04T20:04:16.404Z,5.97
2018-12-04T20:06:44.677Z,5.40
2018-12-04T20:09:13.676Z,5.57
2018-12-04T20:11:48.375Z,5.60
2018-12-04T20:14:16.592Z,5.77
2018-12-04T20:16:44.867Z,6.33
2018-12-04T20:19:12.975Z,6.43
2018-12-04T20:21:41.050Z,5.90
2018-12-04T20:24:09.199Z,5.77
2018-12-04T20:26:38.076Z,5.53
2018-12-04T20:29:06.128Z,5.43
2018-12-04T20:31:34.192Z,5.60
2018-12-04T20:34:02.286Z,5.37
2018-12-04T20:36:30.312Z,5.27
2018-12-04T20:38:58.663Z,5.77
2018-12-04T20:41:26.763Z,5.73
2018-12-04T20:43:54.921Z,5.33
2018-12-04T20:46:22.989Z,5.13
2018-12-04T20:48:51.058Z,6.30
2018-12-04T20:51:19.485Z,5.70
2018-12-04T20:53:47.536Z,5.20
2018-12-04T20:56:15.561Z,6.23
2018-12-04T20:58:43.650Z,5.57
2018-12-04T21:01:11.853Z,6.67
2018-12-04T21:03:39.914Z,6.80
2018-12-04T21:06:07.803Z,6.43
2018-12-04T21:08:36.289Z,7.20
2018-12-04T21:11:04.462Z,6.33
2018-12-04T21:13:32.340Z,7.07
2018-12-04T21:16:00.265Z,6.63
2018-12-04T21:18:28.215Z,7.93
2018-12-04T21:20:56.512Z,7.10
2018-12-04T21:23:24.451Z,7.37
2018-12-04T21:25:52.578Z,6.63
2018-12-04T21:28:24.314Z,7.23
2018-12-04T21:30:57.660Z,7.67
2018-12-04T21:33:30.612Z,8.97
2018-12-04T21:36:03.675Z,13.40
2018-12-04T21:38:36.656Z,17.47
2018-12-04T21:41:09.316Z,23.50
2018-12-04T21:43:42.374Z,15.87
2018-12-04T21:46:15.451Z,12.33
2018-12-04T21:48:43.401Z,18.40
2018-12-04T21:51:11.281Z,15.60
2018-12-04T21:53:39.220Z,13.63
2018-12-04T21:56:07.081Z,9.37
2018-12-04T21:58:34.958Z,8.13
2018-12-04T22:01:02.806Z,8.33
2018-12-04T22:03:30.697Z,9.13
2018-12-04T22:05:58.552Z,8.20
2018-12-04T22:08:26.419Z,16.23
2018-12-04T22:10:54.365Z,15.87
2018-12-04T22:13:22.314Z,9.53
2018-12-04T22:15:50.209Z,8.00
2018-12-04T22:18:18.080Z,7.93
2018-12-04T22:20:45.958Z,10.57
2018-12-04T22:23:13.926Z,10.27
2018-12-04T22:25:41.953Z,9.40
2018-12-04T22:28:09.822Z,8.30
2018-12-04T22:30:37.662Z,8.40
2018-12-04T22:33:05.483Z,9.60
2018-12-04T22:35:33.343Z,8.77
2018-12-04T22:38:01.203Z,9.23
2018-12-04T22:40:29.057Z,10.30
2018-12-04T22:42:56.930Z,9.10
2018-12-04T22:45:26.033Z,8.80
2018-12-04T22:47:54.510Z,9.37
2018-12-04T22:50:22.389Z,8.43
2018-12-04T22:52:50.240Z,8.83
2018-12-04T22:55:18.122Z,9.40
2018-12-04T22:57:46.046Z,9.97
2018-12-04T23:00:18.351Z,9.40
2018-12-04T23:02:46.206Z,8.87
2018-12-04T23:05:14.120Z,8.47
2018-12-04T23:07:42.101Z,7.90
2018-12-04T23:10:10.001Z,9.40
2018-12-04T23:12:37.981Z,8.77
2018-12-04T23:15:06.247Z,8.60
2018-12-04T23:17:34.074Z,9.07
2018-12-04T23:20:02.010Z,8.03
2018-12-04T23:22:29.875Z,9.00
2018-12-04T23:24:57.807Z,9.33
2018-12-04T23:27:25.727Z,7.90
2018-12-04T23:29:53.874Z,8.97
2018-12-04T23:32:21.709Z,8.17
2018-12-04T23:34:49.746Z,8.70
2018-12-04T23:37:17.611Z,8.17
2018-12-04T23:39:45.435Z,7.70
2018-12-04T23:42:13.379Z,8.33
2018-12-04T23:44:41.296Z,8.43
2018-12-04T23:47:09.198Z,8.53
2018-12-04T23:49:37.055Z,9.33
2018-12-04T23:52:04.939Z,10.00
2018-12-04T23:54:32.815Z,9.47
2018-12-04T23:57:00.743Z,8.43
2018-12-04T23:59:28.589Z,9.40
